Time;durP1;ratioP1;P1;durP2;ratioP2;P2;SDS_P1;SDS_P2;PMS_P1;PMS_P2;Temp;Humidity;BMP_temperature;BMP_pressure;BME280_temperature;BME280_humidity;BME280_pressure;Samples;Min_cycle;Max_cycle;Signal;HPM_P1;HPM_P2
2022/12/27 00:02:01;;;;;;;8.40;6.80;;;;;;;8.51;100.00;98814.16;105997;1284;59001;-74
2022/12/27 00:04:27;;;;;;;8.70;6.00;;;;;;;8.52;100.00;98811.34;105992;1292;59004;-74
2022/12/27 00:06:54;;;;;;;7.40;6.50;;;;;;;8.51;100.00;98816.69;105840;1290;59044;-75
2022/12/27 00:09:20;;;;;;;7.30;6.20;;;;;;;8.51;100.00;98818.45;106001;1287;58981;-75
2022/12/27 00:11:47;;;;;;;8.10;5.80;;;;;;;8.51;100.00;98820.05;105683;1287;59112;-73
2022/12/27 00:14:13;;;;;;;8.50;5.00;;;;;;;8.52;100.00;98816.63;105999;1291;59022;-74
2022/12/27 00:16:39;;;;;;;7.30;6.20;;;;;;;8.53;100.00;98814.58;105979;1292;59190;-74
2022/12/27 00:19:06;;;;;;;6.70;5.50;;;;;;;8.55;100.00;98812.02;106008;1292;59018;-75
2022/12/27 00:21:32;;;;;;;6.90;5.40;;;;;;;8.55;100.00;98804.73;106006;1294;59179;-75
2022/12/27 00:23:59;;;;;;;8.80;5.70;;;;;;;8.53;100.00;98801.31;105860;1289;58991;-73
2022/12/27 00:26:28;;;;;;;7.70;5.70;;;;;;;8.54;100.00;98806.05;105984;1285;58980;-73
2022/12/27 00:28:54;;;;;;;7.20;5.80;;;;;;;8.55;100.00;98810.22;105990;1292;58983;-74
2022/12/27 00:31:22;;;;;;;8.80;5.40;;;;;;;8.57;100.00;98809.79;105995;1279;59272;-78
2022/12/27 00:33:51;;;;;;;7.00;5.50;;;;;;;8.58;100.00;98813.79;106066;1289;60776;-76
2022/12/27 00:36:20;;;;;;;8.50;6.20;;;;;;;8.58;100.00;98813.59;106050;1295;65044;-73
2022/12/27 00:38:48;;;;;;;8.20;6.10;;;;;;;8.59;100.00;98814.78;106073;1289;58942;-73
2022/12/27 00:41:15;;;;;;;7.50;4.90;;;;;;;8.59;100.00;98806.65;106087;1288;59079;-73
2022/12/27 00:43:42;;;;;;;6.80;5.80;;;;;;;8.57;100.00;98798.39;106079;1295;67135;-74
2022/12/27 00:46:09;;;;;;;8.10;5.40;;;;;;;8.59;100.00;98795.13;106082;1289;60771;-74
2022/12/27 00:48:36;;;;;;;7.90;5.50;;;;;;;8.60;100.00;98794.69;106044;1281;63818;-73
2022/12/27 00:51:09;;;;;;;6.60;5.20;;;;;;;8.60;100.00;98795.57;105684;1287;58893;-74
2022/12/27 00:53:36;;;;;;;6.50;5.10;;;;;;;8.58;100.00;98787.02;105931;1291;59125;-72
2022/12/27 00:56:16;;;;;;;5.80;5.00;;;;;;;8.54;100.00;98780.02;106097;1288;59046;-72
2022/12/27 00:58:42;;;;;;;4.90;4.40;;;;;;;8.51;100.00;98772.91;106091;1287;61021;-73
2022/12/27 01:01:17;;;;;;;6.00;5.40;;;;;;;8.49;100.00;98768.61;105789;1289;64989;-74
2022/12/27 01:03:44;;;;;;;7.70;5.40;;;;;;;8.48;100.00;98777.94;106078;1289;59786;-73
2022/12/27 01:06:14;;;;;;;5.60;4.30;;;;;;;8.48;100.00;98790.85;106025;1281;58913;-73
2022/12/27 01:08:40;;;;;;;6.50;4.40;;;;;;;8.51;100.00;98793.17;106070;1292;66822;-74
2022/12/27 01:11:08;;;;;;;4.90;4.30;;;;;;;8.52;100.00;98792.70;106060;1288;59912;-74
2022/12/27 01:13:35;;;;;;;5.30;4.40;;;;;;;8.54;100.00;98790.13;106074;1295;65066;-75
2022/12/27 01:16:01;;;;;;;5.80;4.40;;;;;;;8.55;100.00;98786.86;106049;1282;58945;-74
2022/12/27 01:18:27;;;;;;;5.00;4.30;;;;;;;8.57;100.00;98785.86;106054;1289;59035;-74
2022/12/27 01:20:53;;;;;;;5.20;4.30;;;;;;;8.59;100.00;98782.68;106062;1288;58976;-74
2022/12/27 01:23:19;;;;;;;5.70;4.50;;;;;;;8.60;100.00;98781.77;106068;1289;58943;-73
2022/12/27 01:25:45;;;;;;;4.00;3.60;;;;;;;8.60;100.00;98784.25;106055;1281;58885;-73
2022/12/27 01:28:12;;;;;;;6.60;4.40;;;;;;;8.64;100.00;98791.80;106035;1288;59248;-74
2022/12/27 01:30:38;;;;;;;5.00;4.10;;;;;;;8.66;100.00;98786.73;106072;1289;59492;-74
2022/12/27 01:33:04;;;;;;;4.40;3.90;;;;;;;8.65;100.00;98788.93;106081;1289;59010;-75
2022/12/27 01:35:30;;;;;;;4.00;3.40;;;;;;;8.62;100.00;98795.10;105800;1289;59055;-73
2022/12/27 01:37:56;;;;;;;4.00;3.30;;;;;;;8.57;100.00;98787.27;106048;1288;59107;-73
2022/12/27 01:40:22;;;;;;;4.60;3.50;;;;;;;8.55;100.00;98792.88;106107;1287;58904;-73
2022/12/27 01:42:51;;;;;;;3.70;3.30;;;;;;;8.54;100.00;98798.93;106059;1287;65700;-74
2022/12/27 01:45:23;;;;;;;3.80;2.90;;;;;;;8.55;100.00;98802.27;106079;1288;59697;-74
2022/12/27 01:48:15;;;;;;;3.20;2.50;;;;;;;8.56;100.00;98799.38;106037;1289;64895;-77
2022/12/27 01:50:45;;;;;;;3.00;2.30;;;;;;;8.60;100.00;98796.14;106064;1289;58985;-77
2022/12/27 01:53:23;;;;;;;3.30;2.70;;;;;;;8.65;100.00;98797.27;106054;1288;58782;-77
2022/12/27 01:55:55;;;;;;;2.50;2.20;;;;;;;8.68;100.00;98800.59;105700;1294;74246;-77
2022/12/27 01:58:45;;;;;;;2.40;2.20;;;;;;;8.69;100.00;98805.62;106066;1288;60945;-77
2022/12/27 02:01:19;;;;;;;2.60;2.00;;;;;;;8.74;100.00;98810.14;106017;1291;63876;-77
2022/12/27 02:03:58;;;;;;;2.20;1.90;;;;;;;8.78;100.00;98810.77;106061;1292;58934;-76
2022/12/27 02:06:25;;;;;;;2.90;2.20;;;;;;;8.78;100.00;98816.08;106056;1281;59315;-76
2022/12/27 02:09:29;;;;;;;2.20;1.90;;;;;;;8.78;100.00;98818.71;106046;1288;66853;-77
2022/12/27 02:11:57;;;;;;;2.30;2.10;;;;;;;8.81;100.00;98816.45;106052;1289;59843;-76
2022/12/27 02:14:28;;;;;;;3.10;2.40;;;;;;;8.82;100.00;98826.45;105920;1281;63994;-77
2022/12/27 02:16:57;;;;;;;4.00;2.70;;;;;;;8.84;100.00;98833.44;106068;1289;58889;-76
2022/12/27 02:19:41;;;;;;;2.70;2.10;;;;;;;8.85;100.00;98845.77;106067;1289;58917;-77
2022/12/27 02:25:35;;;;;;;3.10;2.00;;;;;;;8.85;100.00;98834.30;106061;1288;60873;-76
2022/12/27 02:28:23;;;;;;;2.70;2.40;;;;;;;8.85;100.00;98836.58;106066;1294;65065;-76
2022/12/27 02:30:56;;;;;;;2.90;2.70;;;;;;;8.83;100.00;98852.42;106058;1289;58868;-77
2022/12/27 02:33:28;;;;;;;4.50;2.60;;;;;;;8.82;100.00;98855.54;106056;1288;58957;-76
2022/12/27 02:36:02;;;;;;;3.20;2.90;;;;;;;8.79;100.00;98860.98;105763;1287;66972;-75
2022/12/27 02:38:37;;;;;;;3.30;3.00;;;;;;;8.76;100.00;98871.80;106016;1288;59793;-77
2022/12/27 02:55:38;;;;;;;5.30;4.40;;;;;;;8.32;100.00;98912.52;106055;1288;63749;-75
2022/12/27 02:58:30;;;;;;;7.10;4.40;;;;;;;8.19;100.00;98913.61;106072;1289;58873;-74
2022/12/27 03:04:45;;;;;;;5.40;4.80;;;;;;;7.95;100.00;98918.52;105171;1297;67048;-73
2022/12/27 03:07:41;;;;;;;6.30;4.90;;;;;;;7.87;100.00;98927.33;105365;1298;60892;-75
2022/12/27 03:16:36;;;;;;;6.20;5.60;;;;;;;7.72;100.00;98940.71;104568;1312;58981;-74
2022/12/27 03:25:26;;;;;;;5.80;5.30;;;;;;;7.69;100.00;98943.00;104625;1305;65838;-76
2022/12/27 03:27:35;;;;;;;5.50;5.00;;;;;;;7.66;100.00;98950.63;104630;1306;58932;-74
2022/12/27 03:33:13;;;;;;;6.50;5.80;;;;;;;7.62;100.00;98956.64;104639;1306;66912;-74
2022/12/27 03:38:45;;;;;;;6.90;6.20;;;;;;;7.60;100.00;98956.40;104657;1299;62575;-74
2022/12/27 03:44:23;;;;;;;7.40;6.70;;;;;;;7.56;100.00;98972.39;105400;1297;59130;-76
2022/12/27 03:46:56;;;;;;;6.90;6.20;;;;;;;7.52;100.00;98970.33;105393;1297;66122;-75
2022/12/27 03:49:37;;;;;;;6.80;5.80;;;;;;;7.47;100.00;98973.91;105303;1298;60243;-74
2022/12/27 03:52:09;;;;;;;6.80;6.20;;;;;;;7.43;100.00;98975.35;105988;1290;64988;-74
2022/12/27 03:54:41;;;;;;;6.80;6.10;;;;;;;7.40;100.00;98977.15;106041;1281;59007;-74
2022/12/27 03:57:12;;;;;;;5.80;5.30;;;;;;;7.38;100.00;98984.35;106083;1287;58904;-73
2022/12/27 03:59:38;;;;;;;6.70;6.00;;;;;;;7.36;100.00;98987.96;106064;1281;66331;-72
2022/12/27 04:02:06;;;;;;;6.60;6.00;;;;;;;7.35;100.00;98992.81;106093;1288;58980;-73
2022/12/27 04:04:32;;;;;;;6.70;6.00;;;;;;;7.33;100.00;98996.23;106067;1288;64998;-73
2022/12/27 04:06:58;;;;;;;6.60;6.00;;;;;;;7.33;100.00;99000.69;106070;1281;58992;-74
2022/12/27 04:36:52;;;;;;;3.40;3.00;;;;;;;6.20;100.00;99071.40;106053;1288;59086;-72
2022/12/27 04:39:18;;;;;;;4.20;2.00;;;;;;;6.01;100.00;99074.23;106058;1281;59050;-73
2022/12/27 04:55:33;;;;;;;3.30;2.70;;;;;;;5.31;100.00;99111.55;106059;1281;60964;-74
2022/12/27 04:57:59;;;;;;;3.80;3.20;;;;;;;5.26;100.00;99117.41;106047;1281;59271;-75
2022/12/27 05:03:21;;;;;;;3.40;2.90;;;;;;;5.17;100.00;99118.33;105767;1288;59241;-74
2022/12/27 05:05:50;;;;;;;4.30;2.20;;;;;;;5.13;100.00;99130.98;106059;1282;67001;-73
2022/12/27 05:13:59;;;;;;;2.80;2.50;;;;;;;5.00;100.00;99145.98;106043;1288;58859;-73
2022/12/27 05:16:36;;;;;;;3.70;2.40;;;;;;;4.98;100.00;99156.27;106075;1288;59054;-73
2022/12/27 05:19:08;;;;;;;4.40;2.10;;;;;;;4.96;100.00;99166.04;105912;1290;66911;-73
2022/12/27 05:21:39;;;;;;;3.30;2.30;;;;;;;4.94;100.00;99168.44;106086;1288;59792;-73
2022/12/27 05:26:50;;;;;;;3.10;2.00;;;;;;;4.89;100.00;99188.49;106056;1283;58804;-75
2022/12/27 05:29:16;;;;;;;2.10;1.90;;;;;;;4.88;100.00;99193.84;106073;1288;59028;-75
2022/12/27 05:31:42;;;;;;;2.60;2.00;;;;;;;4.86;100.00;99199.36;105758;1298;58970;-74
2022/12/27 05:34:09;;;;;;;4.10;2.50;;;;;;;4.85;100.00;99202.23;105797;1290;59531;-74
2022/12/27 05:36:35;;;;;;;3.40;2.50;;;;;;;4.84;100.00;99207.55;106053;1287;59870;-75
2022/12/27 05:39:01;;;;;;;4.00;2.90;;;;;;;4.82;100.00;99205.14;105771;1288;58946;-75
2022/12/27 05:41:29;;;;;;;2.80;2.40;;;;;;;4.81;100.00;99205.04;105919;1275;203501;-74
2022/12/27 05:43:57;;;;;;;3.90;2.70;;;;;;;4.79;100.00;99212.14;106071;1287;65912;-74
2022/12/27 05:46:24;;;;;;;4.30;3.40;;;;;;;4.78;100.00;99226.23;105705;1294;61084;-75
2022/12/27 05:48:49;;;;;;;4.00;2.80;;;;;;;4.78;100.00;99239.66;106088;1288;65023;-74
2022/12/27 05:51:19;;;;;;;6.20;3.20;;;;;;;4.77;100.00;99248.66;106061;1288;58881;-73
2022/12/27 05:53:46;;;;;;;3.20;3.00;;;;;;;4.75;100.00;99257.73;106059;1287;58873;-74
2022/12/27 05:56:15;;;;;;;2.90;2.40;;;;;;;4.73;100.00;99259.39;106065;1288;66982;-74
2022/12/27 05:58:42;;;;;;;3.10;2.80;;;;;;;4.72;100.00;99263.83;106079;1288;60758;-75
2022/12/27 06:01:10;;;;;;;4.70;2.60;;;;;;;4.71;100.00;99270.39;106049;1289;63936;-74
2022/12/27 06:03:36;;;;;;;2.70;2.40;;;;;;;4.69;100.00;99276.61;106059;1288;58944;-74
2022/12/27 06:06:05;;;;;;;3.20;2.30;;;;;;;4.66;100.00;99283.58;106067;1289;58983;-74
2022/12/27 06:08:32;;;;;;;2.30;2.00;;;;;;;4.64;100.00;99295.80;105877;1288;66208;-73
2022/12/27 06:11:01;;;;;;;2.80;2.10;;;;;;;4.61;100.00;99301.54;106090;1288;60976;-74
2022/12/27 06:13:27;;;;;;;3.70;3.30;;;;;;;4.59;100.00;99296.70;106056;1289;64973;-73
2022/12/27 06:15:57;;;;;;;3.90;3.30;;;;;;;4.57;100.00;99296.93;105911;1297;58999;-75
2022/12/27 06:18:23;;;;;;;;;;;;;;;4.54;100.00;99304.61;106114;1281;58887;-75
2022/12/27 06:20:49;;;;;;;4.30;3.90;;;;;;;4.49;100.00;99316.60;106061;1288;58906;-73
2022/12/27 06:23:17;;;;;;;4.30;3.50;;;;;;;4.43;100.00;99315.23;106085;1282;58924;-74
2022/12/27 06:25:43;;;;;;;4.30;3.50;;;;;;;4.39;100.00;99318.20;106056;1281;65324;-76
2022/12/27 06:28:10;;;;;;;5.50;4.10;;;;;;;4.35;100.00;99326.26;105776;1294;58882;-75
2022/12/27 06:30:36;;;;;;;4.70;3.60;;;;;;;4.33;100.00;99337.27;106051;1288;59018;-77
2022/12/27 06:33:02;;;;;;;5.00;3.40;;;;;;;4.30;100.00;99349.32;106075;1288;58969;-75
2022/12/27 06:35:29;;;;;;;4.20;3.80;;;;;;;4.27;100.00;99360.85;106066;1281;59395;-74
2022/12/27 06:37:55;;;;;;;5.40;3.80;;;;;;;4.26;100.00;99377.06;106048;1281;59076;-75
2022/12/27 06:40:21;;;;;;;5.80;4.00;;;;;;;4.25;100.00;99385.19;106081;1287;59017;-75
2022/12/27 06:42:47;;;;;;;7.60;4.90;;;;;;;4.24;100.00;99394.19;106073;1288;59026;-74
2022/12/27 06:45:14;;;;;;;6.10;4.70;;;;;;;4.23;100.00;99404.60;106053;1281;58882;-75
2022/12/27 06:47:39;;;;;;;5.50;4.40;;;;;;;4.21;100.00;99412.76;106067;1288;58940;-74
2022/12/27 06:50:07;;;;;;;6.70;5.60;;;;;;;4.17;100.00;99423.08;106038;1282;58904;-73
2022/12/27 06:52:33;;;;;;;5.70;4.80;;;;;;;4.12;100.00;99423.27;106041;1289;58969;-72
2022/12/27 06:54:59;;;;;;;7.10;4.10;;;;;;;4.05;100.00;99435.10;106069;1288;58955;-72
2022/12/27 06:57:26;;;;;;;6.70;3.80;;;;;;;3.97;100.00;99442.57;106085;1282;58969;-73
2022/12/27 06:59:52;;;;;;;11.90;4.60;;;;;;;3.88;100.00;99441.82;106048;1281;59014;-73
2022/12/27 07:02:18;;;;;;;5.90;4.50;;;;;;;3.83;100.00;99456.55;106059;1281;59392;-74
2022/12/27 07:04:44;;;;;;;8.10;5.30;;;;;;;3.80;100.00;99471.94;106071;1289;58820;-74
2022/12/27 07:07:10;;;;;;;5.30;4.80;;;;;;;3.80;100.00;99476.90;106070;1288;59156;-74
2022/12/27 07:09:37;;;;;;;4.00;3.70;;;;;;;3.80;100.00;99481.98;106103;1287;59095;-74
2022/12/27 07:12:03;;;;;;;3.70;3.30;;;;;;;3.80;100.00;99487.44;105806;1285;59117;-74
2022/12/27 07:14:29;;;;;;;4.50;4.10;;;;;;;3.79;100.00;99497.29;105728;1294;59004;-74
2022/12/27 07:16:55;;;;;;;5.30;4.50;;;;;;;3.79;100.00;99505.55;106054;1281;58975;-74
2022/12/27 07:19:21;;;;;;;5.60;3.90;;;;;;;3.78;100.00;99506.10;106015;1292;58943;-74
2022/12/27 07:21:47;;;;;;;7.10;3.30;;;;;;;3.77;100.00;99513.73;106097;1288;58936;-73
2022/12/27 07:24:13;;;;;;;5.20;3.60;;;;;;;3.76;100.00;99523.40;105780;1278;59215;-75
2022/12/27 07:26:39;;;;;;;7.20;4.70;;;;;;;3.75;100.00;99532.73;106046;1282;59121;-75
2022/12/27 07:29:06;;;;;;;6.50;4.80;;;;;;;3.76;100.00;99537.12;106072;1288;59394;-74
2022/12/27 07:31:32;;;;;;;7.70;3.90;;;;;;;3.76;100.00;99542.20;106074;1288;59022;-74
2022/12/27 07:34:00;;;;;;;6.30;3.80;;;;;;;3.77;100.00;99548.16;106058;1288;58994;-76
2022/12/27 07:36:37;;;;;;;5.80;3.70;;;;;;;3.77;100.00;99554.30;106055;1285;59116;-75
2022/12/27 07:39:05;;;;;;;7.40;3.90;;;;;;;3.78;100.00;99557.45;105799;1299;59143;-75
2022/12/27 07:41:32;;;;;;;4.20;3.20;;;;;;;3.79;100.00;99557.24;105677;1297;58987;-73
2022/12/27 07:43:58;;;;;;;8.90;4.20;;;;;;;3.79;100.00;99556.02;106069;1288;67360;-74
2022/12/27 07:46:25;;;;;;;7.20;3.60;;;;;;;3.80;100.00;99560.02;106086;1287;59082;-75
2022/12/27 07:48:56;;;;;;;7.20;3.70;;;;;;;3.80;100.00;99568.63;106069;1287;64173;-74
2022/12/27 07:51:25;;;;;;;10.80;4.10;;;;;;;3.79;100.00;99576.38;106060;1288;58880;-75
2022/12/27 07:53:52;;;;;;;10.70;3.60;;;;;;;3.77;100.00;99578.02;105935;1292;58946;-75
2022/12/27 07:56:21;;;;;;;5.70;3.30;;;;;;;3.74;100.00;99578.45;106014;1290;59513;-76
2022/12/27 07:58:49;;;;;;;6.30;2.50;;;;;;;3.74;100.00;99582.15;106080;1288;59810;-76
2022/12/27 08:01:17;;;;;;;6.70;3.50;;;;;;;3.76;100.00;99586.67;106058;1288;65003;-75
2022/12/27 08:03:43;;;;;;;10.20;4.40;;;;;;;3.78;100.00;99595.58;106072;1283;58946;-75
2022/12/27 08:06:28;;;;;;;7.80;3.30;;;;;;;3.78;100.00;99601.02;106048;1288;59047;-76
2022/12/27 08:08:57;;;;;;;9.90;4.30;;;;;;;3.77;100.00;99601.58;106007;1273;66844;-77
2022/12/27 08:11:25;;;;;;;9.10;4.60;;;;;;;3.78;100.00;99603.83;106055;1282;60967;-77
2022/12/27 08:13:52;;;;;;;7.10;5.30;;;;;;;3.81;100.00;99606.37;106049;1291;64964;-77
2022/12/27 08:16:21;;;;;;;10.80;5.60;;;;;;;3.81;100.00;99609.20;106046;1288;58975;-78
2022/12/27 08:18:47;;;;;;;12.70;6.70;;;;;;;3.76;100.00;99607.04;105860;1291;58941;-76
2022/12/27 08:21:16;;;;;;;11.50;6.20;;;;;;;3.72;100.00;99609.45;106085;1288;64620;-73
2022/12/27 08:23:43;;;;;;;11.60;5.60;;;;;;;3.69;100.00;99616.05;106063;1282;59134;-74
2022/12/27 08:26:09;;;;;;;9.40;5.60;;;;;;;3.68;100.00;99620.82;106062;1281;65073;-75
2022/12/27 08:28:35;;;;;;;8.90;5.60;;;;;;;3.67;100.00;99630.16;106058;1281;59030;-77
2022/12/27 08:31:06;;;;;;;11.20;5.60;;;;;;;3.67;100.00;99634.39;106068;1288;58780;-76
2022/12/27 08:33:32;;;;;;;11.90;5.00;;;;;;;3.68;100.00;99643.14;105806;1292;66647;-75
2022/12/27 08:36:03;;;;;;;7.70;4.10;;;;;;;3.72;100.00;99651.27;106084;1288;60166;-74
2022/12/27 08:38:30;;;;;;;7.60;4.40;;;;;;;3.79;100.00;99659.34;106067;1281;62413;-77
2022/12/27 08:40:56;;;;;;;6.30;3.70;;;;;;;3.84;100.00;99661.82;106058;1288;59140;-73
2022/12/27 08:43:22;;;;;;;9.00;3.40;;;;;;;3.87;100.00;99668.27;106085;1281;59450;-76
2022/12/27 08:45:49;;;;;;;8.00;3.70;;;;;;;3.88;100.00;99672.97;106090;1287;59038;-75
2022/12/27 08:48:15;;;;;;;6.20;3.40;;;;;;;3.92;100.00;99673.03;106058;1289;59157;-77
2022/12/27 08:50:41;;;;;;;6.90;3.90;;;;;;;3.93;100.00;99672.63;106071;1282;59043;-77
2022/12/27 08:53:09;;;;;;;9.60;4.90;;;;;;;3.93;100.00;99673.34;106056;1288;58937;-75
2022/12/27 08:55:35;;;;;;;7.90;4.40;;;;;;;3.93;100.00;99676.51;106087;1281;59121;-76
2022/12/27 08:58:04;;;;;;;12.10;4.10;;;;;;;3.96;100.00;99678.73;106072;1282;58884;-76
2022/12/27 09:00:31;;;;;;;6.80;4.00;;;;;;;3.98;100.00;99683.58;105736;1290;61395;-76
2022/12/27 09:02:58;;;;;;;8.90;4.30;;;;;;;4.00;100.00;99685.46;106084;1281;64991;-76
2022/12/27 09:05:26;;;;;;;7.00;4.00;;;;;;;4.03;100.00;99686.61;106079;1288;59188;-76
2022/12/27 09:07:52;;;;;;;8.10;3.40;;;;;;;4.03;100.00;99688.70;106044;1278;58928;-75
2022/12/27 09:10:20;;;;;;;8.90;3.70;;;;;;;4.03;100.00;99696.98;106083;1287;59033;-76
2022/12/27 09:12:46;;;;;;;9.80;3.60;;;;;;;4.04;100.00;99694.29;106076;1289;61063;-75
2022/12/27 09:15:13;;;;;;;8.40;3.30;;;;;;;4.06;100.00;99692.13;106075;1287;58948;-74
2022/12/27 09:17:40;;;;;;;9.10;4.20;;;;;;;4.09;100.00;99692.21;106073;1282;59096;-76
2022/12/27 09:20:06;;;;;;;7.10;3.90;;;;;;;4.13;100.00;99694.92;106107;1288;59012;-76
2022/12/27 09:22:32;;;;;;;6.90;3.20;;;;;;;4.16;100.00;99689.90;106087;1281;67047;-77
2022/12/27 09:24:59;;;;;;;9.70;3.70;;;;;;;4.18;100.00;99690.36;106069;1288;59249;-77
2022/12/27 09:27:25;;;;;;;9.90;3.20;;;;;;;4.20;100.00;99691.71;106083;1291;59244;-76
2022/12/27 09:29:51;;;;;;;9.30;3.50;;;;;;;4.23;100.00;99695.34;106090;1288;59167;-76
2022/12/27 09:32:17;;;;;;;8.30;3.70;;;;;;;4.25;100.00;99691.60;105079;1287;1002425;-77
2022/12/27 09:34:44;;;;;;;8.10;2.90;;;;;;;4.27;100.00;99694.86;105754;1291;59531;-76
2022/12/27 09:37:10;;;;;;;6.30;3.10;;;;;;;4.30;100.00;99700.23;106089;1289;58901;-75
2022/12/27 09:39:37;;;;;;;7.30;2.30;;;;;;;4.35;100.00;99702.02;106069;1288;59117;-76
2022/12/27 09:42:20;;;;;;;5.70;2.40;;;;;;;4.39;100.00;99702.92;106093;1289;58881;-75
2022/12/27 09:44:54;;;;;;;8.80;3.50;;;;;;;4.47;100.00;99697.60;106019;1281;58956;-77
2022/12/27 09:47:50;;;;;;;8.10;2.60;;;;;;;4.53;100.00;99697.56;106079;1288;75036;-76
2022/12/27 09:50:26;;;;;;;6.10;2.50;;;;;;;4.57;100.00;99695.52;105701;1287;59334;-76
2022/12/27 09:53:20;;;;;;;8.00;2.40;;;;;;;4.59;100.00;99690.34;106055;1279;65122;-76
2022/12/27 09:55:56;;;;;;;8.30;2.40;;;;;;;4.60;100.00;99689.78;106074;1281;58855;-75
2022/12/27 09:58:38;;;;;;;9.60;3.00;;;;;;;4.66;100.00;99684.67;106074;1288;58820;-75
2022/12/27 10:01:16;;;;;;;7.40;2.40;;;;;;;4.72;100.00;99686.26;105808;1289;66361;-77
2022/12/27 10:03:42;;;;;;;7.20;2.40;;;;;;;4.76;100.00;99689.47;106030;1288;59608;-76
2022/12/27 10:06:11;;;;;;;6.00;2.70;;;;;;;4.80;100.00;99691.46;106036;1281;58991;-76
2022/12/27 10:08:50;;;;;;;6.00;2.20;;;;;;;4.83;100.00;99693.98;106080;1289;58977;-73
2022/12/27 10:11:35;;;;;;;10.00;2.90;;;;;;;4.91;100.00;99693.90;106099;1287;59042;-71
2022/12/27 10:14:27;;;;;;;7.10;2.50;;;;;;;4.98;100.00;99688.58;106069;1280;65921;-70
2022/12/27 10:17:07;;;;;;;8.20;2.10;;;;;;;5.05;100.00;99688.52;105405;1296;59841;-71
2022/12/27 10:19:39;;;;;;;5.90;2.40;;;;;;;5.06;100.00;99690.60;105249;1292;64321;-70
2022/12/27 10:22:26;;;;;;;5.80;1.60;;;;;;;5.06;100.00;99690.96;105388;1291;59226;-70
2022/12/27 10:24:58;;;;;;;5.20;2.50;;;;;;;5.01;100.00;99689.02;105307;1299;58860;-71
2022/12/27 10:27:27;;;;;;;8.60;2.40;;;;;;;4.99;100.00;99685.91;105385;1297;65819;-70
2022/12/27 10:29:54;;;;;;;5.40;2.20;;;;;;;4.96;100.00;99681.95;105411;1297;60850;-71
2022/12/27 10:32:22;;;;;;;6.90;2.20;;;;;;;4.92;100.00;99676.10;105403;1297;64734;-70
2022/12/27 10:35:00;;;;;;;6.00;2.20;;;;;;;4.92;100.00;99675.74;105403;1297;58958;-70
2022/12/27 10:37:27;;;;;;;4.80;1.90;;;;;;;4.96;100.00;99673.14;105407;1297;58941;-71
2022/12/27 10:39:59;;;;;;;6.00;2.30;;;;;;;5.04;100.00;99676.24;105389;1297;66161;-70
2022/12/27 10:42:37;;;;;;;8.40;2.20;;;;;;;5.10;100.00;99680.27;105402;1297;60945;-70
2022/12/27 10:45:35;;;;;;;7.20;2.20;;;;;;;5.16;100.00;99687.44;105367;1289;64962;-71
2022/12/27 10:48:19;;;;;;;8.40;2.70;;;;;;;5.21;100.00;99686.75;105411;1303;58927;-70
2022/12/27 10:50:49;;;;;;;7.80;3.10;;;;;;;5.23;100.00;99681.05;105371;1297;58958;-70
2022/12/27 10:53:34;;;;;;;6.60;2.80;;;;;;;5.26;100.00;99676.55;105408;1297;67002;-69
2022/12/27 10:56:11;;;;;;;7.90;3.00;;;;;;;5.32;100.00;99678.10;106081;1289;59736;-70
2022/12/27 10:58:41;;;;;;;5.40;2.20;;;;;;;5.39;100.00;99675.56;106060;1280;65183;-71
2022/12/27 11:01:33;;;;;;;4.50;1.80;;;;;;;5.40;100.00;99674.11;106061;1281;58962;-70
2022/12/27 11:04:20;;;;;;;7.10;2.10;;;;;;;5.37;100.00;99675.82;106053;1288;59007;-71
2022/12/27 11:06:50;;;;;;;6.30;2.30;;;;;;;5.36;100.00;99670.56;106066;1288;67328;-70
2022/12/27 11:09:19;;;;;;;4.20;1.90;;;;;;;5.30;100.00;99673.75;106062;1287;60788;-70
2022/12/27 11:11:45;;;;;;;5.00;1.90;;;;;;;5.24;100.00;99680.48;106052;1288;64933;-70
2022/12/27 11:14:17;;;;;;;4.30;1.70;;;;;;;5.23;100.00;99681.58;106078;1287;58978;-70
2022/12/27 11:16:47;;;;;;;7.10;1.80;;;;;;;5.25;100.00;99689.43;106089;1288;58884;-71
2022/12/27 11:19:26;;;;;;;10.20;4.10;;;;;;;5.32;100.00;99685.48;106040;1289;67311;-70
2022/12/27 11:21:54;;;;;;;11.00;5.30;;;;;;;5.44;100.00;99681.36;106093;1291;59850;-70
2022/12/27 11:24:21;;;;;;;11.80;5.00;;;;;;;5.58;100.00;99680.88;106073;1288;65139;-70
2022/12/27 11:26:58;;;;;;;7.00;3.90;;;;;;;5.70;100.00;99676.41;106045;1295;58917;-69
2022/12/27 11:29:27;;;;;;;10.80;4.70;;;;;;;5.76;100.00;99676.20;106093;1289;59074;-70
2022/12/27 11:31:54;;;;;;;7.00;4.40;;;;;;;5.78;100.00;99677.02;106078;1288;66286;-70
2022/12/27 11:34:26;;;;;;;12.40;4.50;;;;;;;5.83;100.00;99668.52;105730;1295;60067;-70
2022/12/27 11:36:54;;;;;;;7.30;3.40;;;;;;;5.89;100.00;99668.14;106066;1295;65074;-71
2022/12/27 11:40:10;;;;;;;6.80;3.60;;;;;;;5.95;100.00;99668.28;106077;1289;59003;-70
2022/12/27 11:42:41;;;;;;;8.90;3.50;;;;;;;6.02;100.00;99667.48;105410;1297;59227;-71
2022/12/27 11:45:17;;;;;;;7.70;3.20;;;;;;;6.04;100.00;99664.75;105290;1299;67085;-70
2022/12/27 11:47:50;;;;;;;4.80;3.00;;;;;;;6.04;100.00;99659.85;105420;1298;59240;-71
2022/12/27 11:50:25;;;;;;;6.00;3.10;;;;;;;6.06;100.00;99659.42;105412;1303;65042;-71
2022/12/27 11:53:13;;;;;;;8.00;2.10;;;;;;;6.10;100.00;99660.15;105419;1300;59024;-70
2022/12/27 11:55:45;;;;;;;4.90;2.40;;;;;;;6.18;100.00;99661.97;105297;1300;59200;-70
2022/12/27 11:58:23;;;;;;;5.10;2.70;;;;;;;6.23;100.00;99664.42;105383;1291;67078;-70
2022/12/27 12:01:14;;;;;;;3.40;2.50;;;;;;;6.23;100.00;99670.41;105393;1297;59691;-70
2022/12/27 12:04:17;;;;;;;9.00;3.30;;;;;;;6.15;100.00;99673.38;105403;1297;65035;-69
2022/12/27 12:07:12;;;;;;;7.10;3.10;;;;;;;6.02;100.00;99675.27;105399;1297;59203;-70
2022/12/27 12:10:22;;;;;;;5.40;3.00;;;;;;;5.90;100.00;99674.27;105392;1297;58871;-70
2022/12/27 12:13:22;;;;;;;5.10;2.90;;;;;;;5.80;100.00;99674.30;105399;1298;67052;-70
2022/12/27 12:15:51;;;;;;;;;;;;;;;5.71;100.00;99673.54;105431;1297;61189;-71
2022/12/27 12:18:26;;;;;;;5.10;3.30;;;;;;;5.65;100.00;99672.37;105535;1300;64023;-70
2022/12/27 12:21:23;;;;;;;6.00;3.20;;;;;;;5.61;100.00;99671.44;106038;1288;58817;-70
2022/12/27 12:24:11;;;;;;;5.30;3.20;;;;;;;5.52;100.00;99677.75;106045;1281;58866;-70
2022/12/27 12:27:02;;;;;;;6.00;3.20;;;;;;;5.44;100.00;99675.91;105759;1295;65881;-70
2022/12/27 12:30:07;;;;;;;5.80;3.00;;;;;;;5.40;100.00;99679.23;106076;1289;59645;-70
2022/12/27 12:32:42;;;;;;;5.50;3.10;;;;;;;5.43;100.00;99682.28;106035;1287;64006;-70
2022/12/27 12:35:16;;;;;;;4.50;2.40;;;;;;;5.45;100.00;99682.05;106067;1288;58913;-70
2022/12/27 12:38:04;;;;;;;6.60;3.10;;;;;;;5.48;100.00;99681.95;106066;1287;59033;-78
2022/12/27 12:41:00;;;;;;;3.90;2.20;;;;;;;5.52;100.00;99680.20;106038;1289;66925;-71
2022/12/27 12:43:53;;;;;;;4.70;2.30;;;;;;;5.56;100.00;99677.08;106050;1289;61370;-70
2022/12/27 12:46:25;;;;;;;4.50;2.60;;;;;;;5.60;100.00;99675.36;106066;1289;65008;-71
2022/12/27 12:48:55;;;;;;;6.20;2.70;;;;;;;5.61;100.00;99677.27;106071;1281;59171;-71
2022/12/27 12:51:32;;;;;;;3.60;2.20;;;;;;;5.62;100.00;99679.15;106069;1273;58939;-70
2022/12/27 12:54:04;;;;;;;7.40;2.50;;;;;;;5.63;100.00;99683.35;106064;1281;67085;-71
2022/12/27 12:56:42;;;;;;;4.90;2.40;;;;;;;5.60;100.00;99686.65;106056;1289;60021;-71
2022/12/27 12:59:14;;;;;;;5.10;2.70;;;;;;;5.52;100.00;99694.31;106069;1287;64953;-70
2022/12/27 13:02:32;;;;;;;4.00;2.10;;;;;;;5.46;100.00;99696.11;106074;1288;59072;-71
2022/12/27 13:05:17;;;;;;;2.70;2.10;;;;;;;5.38;100.00;99691.83;105403;1304;59441;-70
2022/12/27 13:08:01;;;;;;;3.20;1.60;;;;;;;5.29;100.00;99694.23;105438;1299;64339;-70
2022/12/27 13:10:44;;;;;;;3.20;2.00;;;;;;;5.21;100.00;99696.27;105304;1295;60976;-69
2022/12/27 13:13:36;;;;;;;5.00;2.20;;;;;;;5.15;100.00;99697.67;105255;1298;64804;-70
2022/12/27 13:16:11;;;;;;;6.30;2.00;;;;;;;5.11;100.00;99697.66;104727;1306;59249;-71
2022/12/27 13:18:47;;;;;;;3.60;2.00;;;;;;;5.06;100.00;99700.29;104655;1306;58896;-71
2022/12/27 13:21:25;;;;;;;5.30;2.00;;;;;;;5.03;100.00;99704.96;104667;1305;67084;-70
2022/12/27 13:24:15;;;;;;;4.70;2.20;;;;;;;5.02;100.00;99701.31;104662;1305;60645;-71